Time;durP1;ratioP1;P1;durP2;ratioP2;P2;SDS_P1;SDS_P2;PMS_P1;PMS_P2;Temp;Humidity;BMP_temperature;BMP_pressure;BME280_temperature;BME280_humidity;BME280_pressure;Samples;Min_cycle;Max_cycle;Signal;HPM_P1;HPM_P2
2022/02/16 00:00:01;;;;;;;31.40;19.48;;;;;;;-0.52;79.67;96965.34;5093707;28;20024;-70
2022/02/16 00:02:27;;;;;;;33.40;19.23;;;;;;;-0.53;79.58;96962.75;5093734;28;20052;-70
2022/02/16 00:04:52;;;;;;;22.75;14.80;;;;;;;-0.53;78.55;96958.47;5093668;28;20070;-70
2022/02/16 00:07:18;;;;;;;29.77;18.10;;;;;;;-0.54;78.23;96959.28;5093639;28;20107;-70
2022/02/16 00:09:44;;;;;;;31.23;18.48;;;;;;;-0.55;78.33;96955.00;5093596;28;20024;-70
2022/02/16 00:12:10;;;;;;;32.25;19.65;;;;;;;-0.55;79.28;96960.16;5093564;28;20451;-70
2022/02/16 00:14:37;;;;;;;28.92;15.73;;;;;;;-0.49;79.07;96961.09;5093633;28;20031;-70
2022/02/16 00:17:04;;;;;;;32.35;17.40;;;;;;;-0.51;78.96;96961.91;5093721;28;20020;-70
2022/02/16 00:19:29;;;;;;;47.30;23.13;;;;;;;-0.51;79.22;96958.50;5093109;28;20036;-70
2022/02/16 00:21:56;;;;;;;29.10;18.00;;;;;;;-0.52;79.26;96959.31;5093448;28;20020;-70
2022/02/16 00:24:21;;;;;;;38.70;19.63;;;;;;;-0.60;79.69;96954.06;5093384;28;20095;-70
2022/02/16 00:26:47;;;;;;;30.60;17.38;;;;;;;-0.59;80.22;96950.69;5093429;28;20153;-70
2022/02/16 00:29:13;;;;;;;34.95;17.73;;;;;;;-0.56;79.78;96952.41;5093454;28;20020;-70
2022/02/16 00:31:43;;;;;;;27.10;15.95;;;;;;;-0.53;79.23;96944.75;5075253;28;20030;-70
2022/02/16 00:34:09;;;;;;;29.30;17.52;;;;;;;-0.57;79.01;96933.56;5093173;28;20032;-70
2022/02/16 00:36:35;;;;;;;29.75;17.33;;;;;;;-0.57;78.17;96927.56;5093272;28;20036;-70
2022/02/16 00:39:02;;;;;;;30.40;16.27;;;;;;;-0.64;78.62;96924.03;5093322;28;20027;-70
2022/02/16 00:41:28;;;;;;;27.67;17.50;;;;;;;-0.60;78.67;96917.25;5093203;28;20028;-70
2022/02/16 00:43:55;;;;;;;29.55;18.30;;;;;;;-0.67;79.22;96922.31;5093198;28;20359;-70
2022/02/16 00:46:21;;;;;;;30.95;18.25;;;;;;;-0.69;79.53;96916.28;5093015;28;20024;-70
2022/02/16 00:48:46;;;;;;;27.27;17.60;;;;;;;-0.75;80.00;96917.91;5093009;28;20084;-70
2022/02/16 00:51:12;;;;;;;27.80;16.90;;;;;;;-0.74;79.84;96907.66;5093140;28;20031;-70
2022/02/16 00:53:37;;;;;;;30.00;17.77;;;;;;;-0.67;79.26;96908.56;5093147;28;20023;-70
2022/02/16 00:56:03;;;;;;;29.38;17.00;;;;;;;-0.71;79.12;96910.25;5093045;28;20023;-70
2022/02/16 00:58:29;;;;;;;25.60;17.38;;;;;;;-0.70;79.13;96909.41;5093158;28;20431;-70
2022/02/16 01:00:54;;;;;;;25.50;16.88;;;;;;;-0.65;79.56;96912.03;5092955;28;20023;-70
2022/02/16 01:03:20;;;;;;;31.92;17.38;;;;;;;-0.65;79.53;96910.34;5093071;28;20044;-70
2022/02/16 01:05:46;;;;;;;25.92;15.23;;;;;;;-0.62;78.40;96912.09;5092819;28;20028;-70
2022/02/16 01:08:12;;;;;;;24.85;14.15;;;;;;;-0.66;77.29;96903.47;5092934;28;20084;-70
2022/02/16 01:10:39;;;;;;;28.52;16.45;;;;;;;-0.79;79.10;96897.31;5092961;28;20028;-70
2022/02/16 01:13:05;;;;;;;29.98;18.02;;;;;;;-0.73;79.76;96893.09;5092854;28;20095;-70
2022/02/16 01:15:31;;;;;;;26.48;16.27;;;;;;;-0.78;79.47;96890.47;5092913;28;20047;-70
2022/02/16 01:17:56;;;;;;;26.85;16.05;;;;;;;-0.77;78.57;96881.91;5096317;28;20452;-70
2022/02/16 01:20:22;;;;;;;23.60;16.25;;;;;;;-0.81;77.96;96885.31;5096701;28;20047;-70
2022/02/16 01:22:48;;;;;;;25.42;15.68;;;;;;;-0.82;77.79;96879.28;5096853;28;20431;-70
2022/02/16 01:25:15;;;;;;;25.35;16.65;;;;;;;-0.84;77.92;96880.97;5096744;28;20466;-70
2022/02/16 01:27:40;;;;;;;26.10;16.98;;;;;;;-0.80;78.22;96879.31;5096785;28;20020;-70
2022/02/16 01:30:08;;;;;;;25.38;16.58;;;;;;;-0.88;78.22;96879.19;5096857;28;20021;-70
2022/02/16 01:32:33;;;;;;;28.35;16.35;;;;;;;-0.91;78.27;96874.03;5096637;28;20478;-70
2022/02/16 01:34:59;;;;;;;28.83;16.52;;;;;;;-0.92;78.56;96877.44;5096459;28;20086;-70
2022/02/16 01:37:25;;;;;;;29.52;17.35;;;;;;;-0.90;78.72;96875.78;5096497;28;20474;-70
2022/02/16 01:39:50;;;;;;;27.90;16.60;;;;;;;-0.96;79.18;96866.25;5078353;28;20069;-70
2022/02/16 01:42:18;;;;;;;32.75;18.15;;;;;;;-0.97;79.92;96867.09;5096520;28;20153;-70
2022/02/16 01:44:44;;;;;;;26.17;16.25;;;;;;;-1.00;80.08;96877.34;5096508;28;20027;-70
2022/02/16 01:47:10;;;;;;;29.80;18.25;;;;;;;-0.92;80.36;96862.91;5096339;28;20024;-70
2022/02/16 01:49:37;;;;;;;30.42;18.50;;;;;;;-0.86;80.51;96872.38;5096349;28;20028;-70
2022/02/16 01:52:03;;;;;;;31.38;17.92;;;;;;;-0.86;79.80;96861.25;5096369;28;20144;-70
2022/02/16 01:54:29;;;;;;;24.48;14.93;;;;;;;-0.84;78.98;96872.41;5096285;28;20028;-70
2022/02/16 01:56:56;;;;;;;31.08;17.17;;;;;;;-0.93;78.79;96866.28;5096130;28;20394;-70
2022/02/16 01:59:23;;;;;;;38.55;21.63;;;;;;;-0.94;79.01;96868.84;5096004;28;20017;-70
2022/02/16 02:01:50;;;;;;;33.13;19.48;;;;;;;-0.94;78.83;96863.69;5096134;28;20394;-70
2022/02/16 02:04:18;;;;;;;31.88;17.85;;;;;;;-0.94;78.57;96862.00;5096040;28;20016;-70
2022/02/16 02:06:45;;;;;;;25.52;15.35;;;;;;;-1.06;78.48;96864.41;5096114;28;20496;-70
2022/02/16 02:09:11;;;;;;;29.45;18.30;;;;;;;-1.11;79.07;96855.78;5096025;28;20498;-70
2022/02/16 02:11:37;;;;;;;32.42;17.55;;;;;;;-1.05;79.11;96866.16;5095853;28;20096;-70
2022/02/16 02:14:05;;;;;;;30.35;18.42;;;;;;;-1.05;79.46;96866.16;5095815;28;20035;-70
2022/02/16 02:16:32;;;;;;;38.22;21.33;;;;;;;-1.02;79.41;96859.34;5095824;28;20021;-70
2022/02/16 02:18:58;;;;;;;34.72;20.15;;;;;;;-0.99;78.75;96860.22;5095554;28;20047;-70
2022/02/16 02:21:24;;;;;;;27.27;17.48;;;;;;;-0.98;77.61;96867.09;5095698;28;20023;-70
2022/02/16 02:23:51;;;;;;;35.75;17.95;;;;;;;-1.03;77.43;96856.75;5095597;28;20052;-70
2022/02/16 02:26:17;;;;;;;31.40;17.45;;;;;;;-1.05;77.47;96861.03;5095559;28;20085;-70
2022/02/16 02:28:45;;;;;;;30.10;18.65;;;;;;;-1.10;77.51;96866.09;5094532;28;20023;-70
2022/02/16 02:31:10;;;;;;;32.70;17.27;;;;;;;-1.22;79.37;96861.66;5095621;28;20038;-71
2022/02/16 02:33:39;;;;;;;34.47;20.30;;;;;;;-1.28;80.30;96854.72;5095460;28;20474;-70
2022/02/16 02:36:06;;;;;;;30.13;17.38;;;;;;;-1.19;80.69;96856.56;5095390;28;20044;-70
2022/02/16 02:38:35;;;;;;;30.45;16.85;;;;;;;-1.22;79.50;96850.50;5095509;28;20031;-70
2022/02/16 02:41:03;;;;;;;27.52;16.35;;;;;;;-1.21;79.14;96853.09;5095422;28;20385;-70
2022/02/16 02:43:37;;;;;;;30.80;17.45;;;;;;;-1.21;79.60;96854.81;5095400;28;20461;-70
2022/02/16 02:46:03;;;;;;;25.25;15.82;;;;;;;-1.26;79.71;96852.19;5095199;28;20055;-70
2022/02/16 02:48:29;;;;;;;26.02;17.25;;;;;;;-1.32;80.17;96850.38;5095131;28;20505;-71
2022/02/16 02:50:54;;;;;;;28.70;17.63;;;;;;;-1.28;80.22;96856.44;5095070;28;20108;-69
2022/02/16 02:53:21;;;;;;;28.00;18.15;;;;;;;-1.35;80.53;96857.19;5095261;28;20172;-70
2022/02/16 02:55:47;;;;;;;27.08;17.13;;;;;;;-1.31;80.82;96851.25;5095215;28;20120;-70
2022/02/16 02:58:13;;;;;;;26.15;16.27;;;;;;;-1.30;80.04;96861.53;5094981;28;20031;-70
2022/02/16 03:00:40;;;;;;;32.05;17.40;;;;;;;-1.36;79.95;96856.31;5094921;28;20032;-71
2022/02/16 03:03:06;;;;;;;32.97;16.95;;;;;;;-1.32;80.21;96858.06;5094919;28;20478;-71
2022/02/16 03:05:31;;;;;;;30.73;17.00;;;;;;;-1.29;79.93;96852.97;5076831;28;20069;-71
2022/02/16 03:07:57;;;;;;;28.92;17.15;;;;;;;-1.30;80.25;96843.56;5094808;28;20374;-71
2022/02/16 03:10:22;;;;;;;32.03;17.15;;;;;;;-1.21;80.27;96842.81;5094856;28;20529;-70
2022/02/16 03:12:48;;;;;;;27.92;15.18;;;;;;;-1.21;79.73;96834.28;5094783;28;20378;-70
2022/02/16 03:15:14;;;;;;;23.60;15.10;;;;;;;-1.20;78.98;96836.84;5094918;28;20063;-70
2022/02/16 03:17:39;;;;;;;24.92;15.35;;;;;;;-1.23;79.35;96836.81;5076489;28;20043;-70
2022/02/16 03:20:07;;;;;;;28.05;17.40;;;;;;;-1.26;79.70;96839.34;5094572;28;20048;-70
2022/02/16 03:22:33;;;;;;;29.92;18.75;;;;;;;-1.31;81.14;96841.84;5094536;28;20048;-70
2022/02/16 03:25:01;;;;;;;28.77;17.13;;;;;;;-1.23;80.73;96839.41;5094474;28;20032;-70
2022/02/16 03:27:27;;;;;;;29.48;17.63;;;;;;;-1.18;80.72;96842.00;5094317;28;20107;-70
2022/02/16 03:29:53;;;;;;;30.92;17.30;;;;;;;-1.17;80.05;96838.59;5094513;28;20021;-70
2022/02/16 03:32:19;;;;;;;29.15;16.98;;;;;;;-1.12;79.91;96846.38;5094453;28;20092;-70
2022/02/16 03:34:44;;;;;;;27.27;17.90;;;;;;;-1.10;79.87;96842.09;5094348;28;20032;-70
2022/02/16 03:37:10;;;;;;;23.98;15.73;;;;;;;-1.04;79.46;96844.75;5076135;28;20065;-70
2022/02/16 03:39:36;;;;;;;32.60;18.33;;;;;;;-1.01;78.52;96855.06;5093966;28;20137;-70
2022/02/16 03:42:02;;;;;;;25.55;16.77;;;;;;;-0.99;78.79;96853.41;5094222;28;20363;-70
2022/02/16 03:44:27;;;;;;;25.95;15.73;;;;;;;-1.03;78.87;96849.03;5094064;28;20027;-70
2022/02/16 03:46:55;;;;;;;28.13;17.45;;;;;;;-0.98;78.65;96851.69;5094108;28;20020;-70
2022/02/16 03:49:24;;;;;;;30.73;18.63;;;;;;;-0.94;78.70;96845.72;5094041;28;20107;-70
2022/02/16 03:51:50;;;;;;;28.00;15.88;;;;;;;-0.96;78.35;96848.28;5094089;28;20020;-70
2022/02/16 03:54:16;;;;;;;25.80;14.85;;;;;;;-1.00;77.88;96836.25;5075899;28;20024;-70
2022/02/16 03:56:42;;;;;;;21.15;13.70;;;;;;;-0.99;78.24;96834.53;5075768;28;20035;-70
2022/02/16 03:59:08;;;;;;;27.98;15.50;;;;;;;-0.97;77.75;96838.00;5093829;28;20024;-70
2022/02/16 04:01:34;;;;;;;23.48;15.23;;;;;;;-0.96;78.28;96837.16;5093904;28;20062;-70
2022/02/16 04:04:00;;;;;;;27.00;16.60;;;;;;;-0.99;78.84;96839.69;5093924;28;20074;-70
2022/02/16 04:06:26;;;;;;;23.88;15.32;;;;;;;-1.06;79.24;96847.31;5093797;28;20492;-70
2022/02/16 04:08:51;;;;;;;28.42;16.77;;;;;;;-1.06;79.14;96836.16;5093688;28;20027;-70
2022/02/16 04:11:21;;;;;;;28.35;16.80;;;;;;;-1.10;79.15;96839.53;5093641;28;20024;-70
2022/02/16 04:13:48;;;;;;;24.17;16.67;;;;;;;-1.20;79.74;96847.09;5093693;28;20036;-70
2022/02/16 04:16:14;;;;;;;28.10;16.38;;;;;;;-1.21;80.39;96845.41;5093555;28;20517;-70
2022/02/16 04:18:39;;;;;;;29.20;16.20;;;;;;;-1.22;80.58;96845.38;5093395;28;20040;-70
2022/02/16 04:21:05;;;;;;;29.38;18.58;;;;;;;-1.21;81.07;96847.13;5093496;28;20030;-70
2022/02/16 04:23:31;;;;;;;27.25;16.40;;;;;;;-1.26;81.28;96841.91;5093399;28;20020;-70
2022/02/16 04:25:57;;;;;;;29.30;16.42;;;;;;;-1.24;81.66;96839.38;5093362;28;20020;-70
2022/02/16 04:28:23;;;;;;;32.63;16.60;;;;;;;-1.21;81.31;96835.13;5093505;28;20023;-70
2022/02/16 04:30:50;;;;;;;26.35;16.52;;;;;;;-1.15;80.81;96842.91;5093488;28;20028;-70
2022/02/16 04:33:16;;;;;;;35.28;19.25;;;;;;;-1.19;81.39;96836.03;5093346;28;20027;-70
2022/02/16 04:35:41;;;;;;;33.30;16.80;;;;;;;-1.17;81.55;96833.47;5093312;28;20016;-70
2022/02/16 04:38:08;;;;;;;34.50;18.58;;;;;;;-1.13;82.13;96839.50;5093240;28;20016;-71
2022/02/16 04:40:34;;;;;;;27.48;16.67;;;;;;;-1.11;82.14;96838.69;5093109;28;20016;-70
2022/02/16 04:43:03;;;;;;;30.08;17.13;;;;;;;-1.08;82.22;96841.28;5093397;28;20020;-70
2022/02/16 04:45:30;;;;;;;21.92;13.00;;;;;;;-1.00;81.97;96841.38;5093373;28;20028;-70
2022/02/16 04:47:56;;;;;;;29.20;18.73;;;;;;;-0.99;81.25;96842.25;5092912;28;20482;-70
2022/02/16 04:50:22;;;;;;;29.75;17.63;;;;;;;-1.01;80.70;96839.66;5093058;28;20024;-70
2022/02/16 04:52:49;;;;;;;22.42;15.40;;;;;;;-0.99;80.19;96847.38;5092441;28;20021;-70
2022/02/16 04:55:15;;;;;;;25.85;17.10;;;;;;;-1.03;80.26;96838.78;5093121;28;20024;-70
2022/02/16 04:57:41;;;;;;;27.63;18.02;;;;;;;-1.02;80.35;96853.34;5093058;28;20065;-70
2022/02/16 05:00:09;;;;;;;32.67;19.80;;;;;;;-1.05;80.98;96843.88;5093024;28;20024;-70
2022/02/16 05:02:35;;;;;;;28.48;16.48;;;;;;;-1.00;81.02;96846.50;5075019;28;20420;-70
2022/02/16 05:05:00;;;;;;;31.70;18.42;;;;;;;-0.99;80.82;96835.41;5093180;28;20021;-70
2022/02/16 05:07:26;;;;;;;36.53;18.38;;;;;;;-1.00;80.80;96837.97;5092958;28;20049;-70
2022/02/16 05:09:51;;;;;;;27.50;17.70;;;;;;;-1.05;80.71;96838.75;5093076;28;20024;-70
2022/02/16 05:12:18;;;;;;;28.83;17.85;;;;;;;-1.05;80.63;96835.34;5093038;28;20036;-70
2022/02/16 05:14:43;;;;;;;25.85;16.10;;;;;;;-1.03;80.75;96837.06;5092932;28;20016;-70
2022/02/16 05:17:09;;;;;;;29.15;15.93;;;;;;;-0.95;79.84;96842.31;5092911;28;20027;-70
2022/02/16 05:19:35;;;;;;;25.00;16.25;;;;;;;-0.93;79.93;96839.75;5092668;28;20048;-70
2022/02/16 05:22:00;;;;;;;34.65;18.88;;;;;;;-0.91;79.92;96841.50;5092860;28;20027;-70
2022/02/16 05:24:26;;;;;;;29.85;18.25;;;;;;;-0.97;80.11;96838.84;5092877;28;20036;-70
2022/02/16 05:26:52;;;;;;;33.55;18.83;;;;;;;-0.97;80.83;96838.00;5092728;28;20027;-70
2022/02/16 05:29:18;;;;;;;34.10;21.10;;;;;;;-0.90;82.03;96837.25;5093014;28;20031;-70
2022/02/16 05:31:44;;;;;;;32.35;20.98;;;;;;;-0.88;82.24;96834.69;5092844;28;20028;-70
2022/02/16 05:34:10;;;;;;;28.33;18.40;;;;;;;-0.84;81.72;96839.00;5092692;28;20363;-70
2022/02/16 05:36:36;;;;;;;28.38;17.90;;;;;;;-0.82;80.77;96840.75;5092757;28;20085;-70
2022/02/16 05:39:03;;;;;;;31.60;18.50;;;;;;;-0.81;81.82;96836.47;5092681;28;20020;-71
2022/02/16 05:41:29;;;;;;;26.20;18.17;;;;;;;-0.70;82.03;96826.31;5092771;28;20021;-70
2022/02/16 05:43:56;;;;;;;26.83;17.33;;;;;;;-0.55;81.85;96836.78;5092578;28;20036;-70
2022/02/16 05:46:22;;;;;;;23.88;16.90;;;;;;;-0.41;81.18;96836.06;5092591;28;20024;-70
2022/02/16 05:48:47;;;;;;;24.55;15.18;;;;;;;-0.24;80.61;96845.66;5092550;28;20013;-71
2022/02/16 05:51:13;;;;;;;22.15;14.73;;;;;;;-0.09;80.03;96844.94;5092425;28;20401;-70
2022/02/16 05:53:39;;;;;;;23.15;14.07;;;;;;;0.10;79.11;96848.53;5092573;28;20077;-70
2022/02/16 05:56:05;;;;;;;18.77;12.77;;;;;;;0.33;76.92;96847.88;5092637;28;20017;-70
2022/02/16 05:58:31;;;;;;;18.08;11.70;;;;;;;0.50;75.55;96855.69;5092537;28;20020;-70
2022/02/16 06:00:57;;;;;;;24.23;13.20;;;;;;;0.59;75.40;96865.19;5092450;28;20025;-70
2022/02/16 06:03:23;;;;;;;22.02;13.80;;;;;;;0.69;74.87;96868.72;5094739;28;20025;-70
2022/02/16 06:05:48;;;;;;;25.10;17.05;;;;;;;0.75;75.06;96869.59;5096045;28;20031;-70
2022/02/16 06:08:14;;;;;;;21.63;13.50;;;;;;;0.88;75.13;96860.22;5095989;28;20110;-70
2022/02/16 06:10:39;;;;;;;18.50;13.18;;;;;;;1.07;74.57;96860.31;5096103;28;20088;-70
2022/02/16 06:13:05;;;;;;;17.58;12.07;;;;;;;1.23;73.35;96858.66;5095975;28;20036;-70
2022/02/16 06:15:30;;;;;;;19.00;13.57;;;;;;;1.39;73.24;96862.16;5095886;28;20028;-70
2022/02/16 06:17:56;;;;;;;18.85;13.30;;;;;;;1.61;72.64;96859.69;5095918;28;20023;-70
2022/02/16 06:20:22;;;;;;;20.67;12.40;;;;;;;1.95;72.02;96865.75;5095636;28;20075;-70
2022/02/16 06:22:48;;;;;;;20.38;12.15;;;;;;;2.34;70.75;96870.94;5095743;28;20027;-70
2022/02/16 06:25:14;;;;;;;21.77;14.32;;;;;;;2.84;70.52;96876.94;5095732;28;20382;-70
2022/02/16 06:27:40;;;;;;;20.02;12.65;;;;;;;3.86;68.96;96877.44;5095619;28;20043;-71
2022/02/16 06:30:07;;;;;;;16.13;11.20;;;;;;;5.33;63.27;96881.34;5095610;28;20020;-70
2022/02/16 06:32:34;;;;;;;20.25;11.15;;;;;;;6.96;59.12;96879.88;5095674;28;20466;-71
2022/02/16 06:35:00;;;;;;;15.57;11.68;;;;;;;8.33;55.92;96870.97;5095580;28;20039;-71
2022/02/16 06:37:26;;;;;;;17.25;12.00;;;;;;;9.73;53.41;96872.56;5095458;28;20028;-71
2022/02/16 06:39:52;;;;;;;14.18;11.07;;;;;;;11.00;50.08;96873.88;5095496;28;20024;-71
2022/02/16 06:42:17;;;;;;;12.85;10.52;;;;;;;11.82;48.15;96859.59;5095359;28;20099;-71
2022/02/16 06:44:43;;;;;;;13.65;10.40;;;;;;;11.96;47.53;96855.59;5095413;28;20032;-71
2022/02/16 06:47:09;;;;;;;11.95;9.25;;;;;;;12.11;46.56;96860.28;5095273;28;20077;-71
2022/02/16 06:49:35;;;;;;;10.93;8.80;;;;;;;11.77;45.94;96874.63;5095159;28;20028;-71
2022/02/16 06:52:01;;;;;;;19.05;12.93;;;;;;;11.37;46.05;96874.34;5095262;28;20107;-70
2022/02/16 06:54:26;;;;;;;18.50;13.23;;;;;;;11.54;45.27;96863.25;5095294;28;20095;-70
2022/02/16 06:56:52;;;;;;;17.77;12.95;;;;;;;11.81;44.21;96852.66;5095164;28;20024;-71
2022/02/16 06:59:18;;;;;;;16.30;12.45;;;;;;;12.58;42.55;96860.22;5095230;28;20438;-71
2022/02/16 07:01:43;;;;;;;14.63;11.55;;;;;;;13.40;42.20;96856.72;5095069;28;20016;-70
2022/02/16 07:04:09;;;;;;;14.63;11.98;;;;;;;14.35;40.73;96845.44;5095059;28;20489;-71
2022/02/16 07:06:35;;;;;;;15.95;10.45;;;;;;;15.29;39.27;96841.66;5094803;28;20034;-70
2022/02/16 07:09:00;;;;;;;13.02;9.77;;;;;;;16.06;38.12;96832.38;5094932;28;20500;-70
2022/02/16 07:11:26;;;;;;;15.25;10.68;;;;;;;16.77;37.06;96844.19;5094893;28;20028;-71
2022/02/16 07:13:52;;;;;;;13.38;10.70;;;;;;;17.51;36.38;96839.91;5076224;28;20024;-70
2022/02/16 07:16:17;;;;;;;14.13;10.52;;;;;;;18.26;34.97;96846.72;5094537;28;20079;-71
2022/02/16 07:18:43;;;;;;;16.80;10.70;;;;;;;19.00;33.86;96852.56;5094554;28;20068;-71
2022/02/16 07:21:10;;;;;;;20.90;13.00;;;;;;;18.87;33.81;96847.25;5094673;28;20024;-71
2022/02/16 07:23:36;;;;;;;18.02;12.50;;;;;;;18.31;34.67;96843.78;5094618;28;20016;-71
2022/02/16 07:26:03;;;;;;;18.60;12.77;;;;;;;18.10;35.37;96833.63;5094438;28;20031;-70
2022/02/16 07:28:28;;;;;;;15.75;12.50;;;;;;;18.22;35.46;96839.09;5094647;28;20065;-71
2022/02/16 07:30:56;;;;;;;14.77;12.98;;;;;;;18.59;34.67;96831.38;5094518;28;20130;-71
2022/02/16 07:33:22;;;;;;;18.85;14.27;;;;;;;18.89;33.79;96827.63;5094444;28;20358;-71
2022/02/16 07:35:49;;;;;;;24.27;16.63;;;;;;;19.48;33.43;96825.47;5094383;28;20043;-70
2022/02/16 07:38:14;;;;;;;17.92;14.10;;;;;;;20.32;32.02;96821.38;5094265;28;20107;-71
2022/02/16 07:40:40;;;;;;;17.42;13.85;;;;;;;21.25;30.88;96831.38;5094253;28;20017;-72
2022/02/16 07:43:06;;;;;;;19.58;13.38;;;;;;;21.36;30.44;96835.84;5094313;28;20032;-71
2022/02/16 07:45:31;;;;;;;15.93;11.48;;;;;;;20.78;31.74;96827.75;5094236;28;20047;-71
2022/02/16 07:48:00;;;;;;;14.30;12.57;;;;;;;20.53;31.78;96820.75;5094002;28;20027;-71
2022/02/16 07:50:26;;;;;;;13.82;10.38;;;;;;;19.86;33.15;96822.88;5094107;28;20067;-72
2022/02/16 07:52:52;;;;;;;17.83;11.80;;;;;;;20.48;32.15;96825.53;5094044;28;20024;-71
2022/02/16 07:55:18;;;;;;;13.70;11.10;;;;;;;20.61;32.00;96820.16;5094061;28;20077;-71
2022/02/16 07:57:43;;;;;;;15.45;10.32;;;;;;;20.52;32.03;96827.00;5094056;28;20020;-71
2022/02/16 08:00:09;;;;;;;12.45;10.93;;;;;;;21.11;31.40;96819.16;5093925;28;20106;-71
2022/02/16 08:02:35;;;;;;;14.40;12.23;;;;;;;21.11;31.16;96829.78;5093910;28;20024;-71
2022/02/16 08:05:00;;;;;;;13.13;11.00;;;;;;;21.54;30.31;96821.13;5093907;28;20027;-71
2022/02/16 08:07:26;;;;;;;13.80;10.80;;;;;;;21.70;30.57;96825.22;5093698;28;20077;-71
2022/02/16 08:09:53;;;;;;;12.35;9.50;;;;;;;21.57;30.82;96823.56;5093746;28;20016;-71
2022/02/16 08:12:19;;;;;;;12.38;10.00;;;;;;;21.48;30.72;96826.06;5093910;28;20111;-71
2022/02/16 08:14:44;;;;;;;12.18;9.48;;;;;;;20.87;32.23;96828.84;5093635;28;20431;-71
2022/02/16 08:17:10;;;;;;;11.90;9.90;;;;;;;20.36;32.63;96814.03;5093585;28;20032;-71
2022/02/16 08:19:36;;;;;;;17.77;11.18;;;;;;;19.59;34.39;96815.91;5093363;28;20123;-71
2022/02/16 08:22:02;;;;;;;12.88;10.43;;;;;;;18.97;35.61;96820.97;5093638;28;20111;-71
2022/02/16 08:24:28;;;;;;;13.15;9.85;;;;;;;17.79;37.17;96809.09;5075312;28;20481;-70
2022/02/16 08:26:55;;;;;;;14.50;10.68;;;;;;;17.63;37.46;96810.06;5092445;28;20027;-71
2022/02/16 08:29:22;;;;;;;14.23;10.60;;;;;;;17.90;37.11;96790.75;5093421;28;20020;-70
2022/02/16 08:31:48;;;;;;;12.43;9.93;;;;;;;17.85;36.97;96792.00;5093557;28;20433;-70
2022/02/16 08:34:14;;;;;;;14.55;10.63;;;;;;;17.35;38.17;96795.91;5093485;28;20110;-70
2022/02/16 08:36:39;;;;;;;13.48;10.32;;;;;;;16.79;40.22;96792.13;5093428;28;20071;-71
2022/02/16 08:39:05;;;;;;;15.57;11.05;;;;;;;15.95;42.35;96790.75;5093356;28;20024;-70
2022/02/16 08:41:31;;;;;;;15.05;10.88;;;;;;;15.48;42.13;96788.00;5093299;28;20388;-70
2022/02/16 08:43:57;;;;;;;14.98;10.77;;;;;;;15.28;43.07;96785.50;5093213;28;20078;-70
2022/02/16 08:46:23;;;;;;;14.75;10.95;;;;;;;15.16;43.20;96791.41;5093297;28;20024;-70
2022/02/16 08:48:48;;;;;;;13.88;10.98;;;;;;;15.16;43.14;96781.72;5093328;28;20369;-70
2022/02/16 08:51:14;;;;;;;15.98;11.55;;;;;;;14.63;44.77;96788.81;5093171;28;20110;-70
2022/02/16 08:53:39;;;;;;;16.77;11.35;;;;;;;14.23;45.62;96781.97;5093208;28;20054;-70
2022/02/16 08:56:06;;;;;;;16.40;11.65;;;;;;;14.01;46.69;96785.66;5093113;28;20057;-70
2022/02/16 08:58:31;;;;;;;18.33;11.60;;;;;;;13.77;46.20;96774.53;5093196;28;20051;-70
2022/02/16 09:00:57;;;;;;;19.60;10.48;;;;;;;13.79;46.54;96774.44;5075111;28;20496;-70
2022/02/16 09:03:24;;;;;;;16.35;10.50;;;;;;;13.75;45.76;96771.09;5093185;28;20062;-70
2022/02/16 09:05:50;;;;;;;16.45;10.25;;;;;;;13.70;46.53;96765.22;5092889;28;20020;-70
2022/02/16 09:08:17;;;;;;;12.73;9.32;;;;;;;13.73;45.71;96762.44;5092913;28;20032;-70
2022/02/16 09:10:43;;;;;;;13.13;10.20;;;;;;;13.95;44.15;96761.41;5093013;28;20024;-70
2022/02/16 09:13:09;;;;;;;12.52;9.32;;;;;;;14.17;43.15;96761.22;5093068;28;20073;-70
2022/02/16 09:15:35;;;;;;;13.00;8.98;;;;;;;14.20;45.44;96761.06;5093044;28;20024;-70
2022/02/16 09:18:00;;;;;;;13.20;10.20;;;;;;;14.19;44.08;96754.13;5092947;28;20024;-70
2022/02/16 09:20:26;;;;;;;14.95;9.38;;;;;;;14.12;43.49;96745.66;5092786;28;20044;-70
2022/02/16 09:22:52;;;;;;;10.38;9.07;;;;;;;14.07;43.99;96746.81;5092917;28;20031;-70
2022/02/16 09:25:18;;;;;;;12.45;8.55;;;;;;;14.17;43.26;96745.44;5075021;28;20028;-70
2022/02/16 09:27:44;;;;;;;10.05;8.38;;;;;;;14.15;42.70;96740.25;5092834;28;20020;-70
2022/02/16 09:30:10;;;;;;;14.00;9.15;;;;;;;14.35;43.20;96734.91;5092691;28;20020;-70
2022/02/16 09:32:36;;;;;;;10.60;8.40;;;;;;;14.65;42.64;96742.19;5092823;28;20378;-70
2022/02/16 09:35:03;;;;;;;15.05;11.80;;;;;;;14.53;43.16;96749.78;5092773;28;20046;-70
2022/02/16 09:37:29;;;;;;;17.92;11.07;;;;;;;14.52;42.99;96753.38;5093704;28;20027;-70
2022/02/16 09:39:54;;;;;;;16.30;11.00;;;;;;;14.53;43.83;96746.28;5096600;28;20029;-70
2022/02/16 09:42:20;;;;;;;16.85;11.98;;;;;;;14.68;43.07;96747.28;5096518;28;20028;-70
2022/02/16 09:44:58;;;;;;;13.90;10.35;;;;;;;14.46;42.20;96734.38;5096497;28;20051;-70
2022/02/16 09:47:25;;;;;;;22.40;14.95;;;;;;;14.43;42.67;96729.28;5096486;28;20038;-70
2022/02/16 09:49:51;;;;;;;20.92;13.65;;;;;;;14.32;44.21;96729.81;5096388;28;20034;-71
2022/02/16 09:52:19;;;;;;;26.52;18.40;;;;;;;14.26;44.94;96728.34;5096338;28;20058;-70
2022/02/16 09:54:49;;;;;;;30.42;20.75;;;;;;;14.09;44.62;96722.13;5096282;28;20490;-70
2022/02/16 09:57:15;;;;;;;31.40;19.75;;;;;;;14.32;44.67;96717.50;5096210;28;20024;-70
2022/02/16 09:59:41;;;;;;;35.05;22.50;;;;;;;14.52;44.10;96713.03;5096201;28;20050;-70
2022/02/16 10:02:12;;;;;;;28.70;21.17;;;;;;;14.61;43.85;96709.06;5096210;28;20030;-70
2022/02/16 10:04:41;;;;;;;31.23;21.10;;;;;;;14.56;43.34;96697.91;5096055;28;20071;-70
2022/02/16 10:07:34;;;;;;;30.05;21.52;;;;;;;14.02;44.91;96689.16;5095965;28;20028;-70
2022/02/16 10:10:20;;;;;;;33.28;20.17;;;;;;;14.02;44.25;96671.63;5096198;28;20472;-70
2022/02/16 10:12:56;;;;;;;28.95;20.60;;;;;;;13.99;45.22;96673.53;5096236;28;20031;-70
2022/02/16 10:15:35;;;;;;;36.85;25.23;;;;;;;14.08;45.64;96669.59;5096106;28;20381;-70
2022/02/16 10:18:14;;;;;;;37.60;26.45;;;;;;;14.01;45.83;96677.81;5095934;28;20028;-70
2022/02/16 10:20:41;;;;;;;42.55;26.58;;;;;;;13.85;45.98;96679.50;5095710;28;20040;-70
2022/02/16 10:23:07;;;;;;;41.90;26.50;;;;;;;13.64;46.03;96667.31;5095780;28;20024;-70
2022/02/16 10:25:34;;;;;;;41.70;26.45;;;;;;;13.12;47.18;96686.34;5095845;28;20024;-70
2022/02/16 10:28:02;;;;;;;39.55;26.02;;;;;;;12.50;48.20;96680.31;5095760;28;20112;-70
2022/02/16 10:30:28;;;;;;;41.85;26.40;;;;;;;12.61;48.10;96684.22;5095557;28;20026;-70
2022/02/16 10:33:17;;;;;;;40.38;26.55;;;;;;;12.38;48.84;96686.94;5095532;28;20095;-70
2022/02/16 10:35:45;;;;;;;38.47;26.33;;;;;;;12.16;49.92;96683.56;5095454;28;20123;-70
2022/02/16 10:38:10;;;;;;;38.00;25.13;;;;;;;12.18;49.41;96679.94;5095625;28;20024;-70
2022/02/16 10:40:36;;;;;;;40.40;26.30;;;;;;;12.21;49.80;96673.69;5095465;28;20021;-70
2022/02/16 10:43:02;;;;;;;38.70;24.67;;;;;;;12.33;49.51;96664.47;5095582;28;20024;-70
2022/02/16 10:45:31;;;;;;;46.33;26.77;;;;;;;12.43;49.50;96660.50;5095375;28;20016;-70
2022/02/16 10:48:02;;;;;;;37.40;25.45;;;;;;;12.41;49.85;96669.38;5095221;28;20025;-70
2022/02/16 10:50:46;;;;;;;37.38;24.67;;;;;;;12.35;49.80;96660.88;5094326;28;20488;-70
2022/02/16 10:53:13;;;;;;;34.65;25.27;;;;;;;12.46;48.92;96656.94;5095371;28;20030;-70
2022/02/16 10:55:44;;;;;;;41.50;25.33;;;;;;;12.45;49.50;96652.56;5095113;28;20024;-70
2022/02/16 10:58:28;;;;;;;38.15;25.45;;;;;;;12.39;49.30;96648.44;5095132;28;20073;-69
2022/02/16 11:00:59;;;;;;;37.78;24.70;;;;;;;12.41;49.52;96643.16;5095296;28;20024;-70
2022/02/16 11:03:36;;;;;;;36.03;25.73;;;;;;;12.45;49.64;96637.69;5095051;28;20023;-70
2022/02/16 11:06:13;;;;;;;43.08;27.05;;;;;;;12.41;49.43;96641.38;5095069;28;20420;-70
2022/02/16 11:08:40;;;;;;;43.22;26.55;;;;;;;12.23;49.74;96643.91;5094997;28;20102;-70
2022/02/16 11:11:07;;;;;;;41.38;26.98;;;;;;;12.22;49.43;96638.72;5094875;28;20032;-70
2022/02/16 11:13:37;;;;;;;40.67;26.17;;;;;;;12.24;49.50;96631.59;5094855;28;20070;-70
2022/02/16 11:16:03;;;;;;;45.65;27.10;;;;;;;12.12;50.21;96626.00;5094753;28;20032;-70